首页
METAR-TAF:

METAR-TAF

机场 :

温贝托·德尔加多机场

里斯本, 葡萄牙

纬度: 38-46N, 经度: 009-08W, 海拔: 114米

当前天气观测

该预报发布于22分钟前的01:00 UTC
风速10节,风向西北
温度 17°C
湿度 88%
气压 1010 hPa
能见度10公里或以上
1500米以下无云,无积雨云

METAR: LPPT 310100Z 32010KT CAVOK 17/15 Q1010

时间: 02:22 (01:22 UTC)

预报

该预报发布于2小时和22分钟前的23:00 UTC
预报有效从31日的 00点(UTC)到 01日的 06点(UTC)
风速8节,风向西北
能见度10公里或以上
1500米以下无云,无积雨云
成为
从 31日的 01点(UTC)到 31日的 04点(UTC)
风速5节,风向北转西北
能见度10公里或以上
散云层高于1200英尺
成为
从 31日的 09点(UTC)到 31日的 12点(UTC)
风速10节,风向南转西南
少量云层高于3000英尺
几率 30% :
短暂存在
从 31日的 12点(UTC)到 31日的 18点(UTC)
能見度: 8000
多云层高于1800英尺
少量云层高于2500英尺, 积雨云.
阵雨
成为
从 31日的 15点(UTC)到 31日的 17点(UTC)
风速10节,风向西北
成为
从 01日的 03点(UTC)到 01日的 06点(UTC)
风速2节,风向多变
少量云层高于1200英尺
多云层高于3500英尺

TAF: LPPT 302300Z 3100/0106 32008KT CAVOK BECMG 3101/3104 33005KT 9999 SCT012 BECMG 3109/3112 21010KT FEW030 PROB30 TEMPO 3112/3118 8000 SHRA BKN018 FEW025CB BECMG 3115/3117 31010KT BECMG 0103/0106 VRB02KT FEW012 BKN035

超过4000个机场的气象观测和天气预报(METAR&TAF报告)。

可查询的气象台以黄色和红色小点在地图上表示。

将鼠标移到小点上方,可查看气象台名称。

然后点击查看天气观测和预报。

如需切换地图:点击带黑十字的绿色按钮放大地图;点击带横线的绿色按钮缩小地图;或者点击绿色箭头查看邻近地区的地图。


METAR-TAF: